createdAt,value
2024-04-25T00:01:01.102Z,2.31
2024-04-25T00:03:28.340Z,2.30
2024-04-25T00:05:55.626Z,2.28
2024-04-25T00:08:22.812Z,2.25
2024-04-25T00:10:51.577Z,2.24
2024-04-25T00:13:27.351Z,2.21
2024-04-25T00:15:55.535Z,2.18
2024-04-25T00:18:22.899Z,2.14
2024-04-25T00:20:50.075Z,2.12
2024-04-25T00:23:17.227Z,2.10
2024-04-25T00:25:44.369Z,2.11
2024-04-25T00:28:11.794Z,2.09
2024-04-25T00:30:41.456Z,2.11
2024-04-25T00:33:08.821Z,2.13
2024-04-25T00:35:36.096Z,2.14
2024-04-25T00:38:03.455Z,2.12
2024-04-25T00:40:31.025Z,2.11
2024-04-25T00:43:01.047Z,2.12
2024-04-25T00:45:28.165Z,2.12
2024-04-25T00:47:57.910Z,2.10
2024-04-25T00:50:25.378Z,2.12
2024-04-25T00:52:52.982Z,2.15
2024-04-25T00:55:20.838Z,2.14
2024-04-25T00:57:49.008Z,2.13
2024-04-25T01:00:18.099Z,2.12
2024-04-25T01:02:46.442Z,2.21
2024-04-25T01:05:16.731Z,2.28
2024-04-25T01:07:43.982Z,2.36
2024-04-25T01:10:11.119Z,2.39
2024-04-25T01:12:38.236Z,2.44
2024-04-25T01:15:06.224Z,2.48
2024-04-25T01:17:33.518Z,2.51
2024-04-25T01:20:00.689Z,2.53
2024-04-25T01:22:40.075Z,2.62
2024-04-25T01:25:11.152Z,2.74
2024-04-25T01:27:39.643Z,2.87
2024-04-25T01:30:10.225Z,2.94
2024-04-25T01:32:39.005Z,3.00
2024-04-25T01:35:08.771Z,2.96
2024-04-25T01:37:36.006Z,2.91
2024-04-25T01:40:03.481Z,2.87
2024-04-25T01:42:33.183Z,2.80
2024-04-25T01:45:00.346Z,2.76
2024-04-25T01:47:27.626Z,2.70
2024-04-25T01:49:54.792Z,2.66
2024-04-25T01:52:22.190Z,2.63
2024-04-25T01:54:49.308Z,2.59
2024-04-25T01:57:16.409Z,2.55
2024-04-25T01:59:46.073Z,2.52
2024-04-25T02:02:13.285Z,2.52
2024-04-25T02:04:40.386Z,2.49
2024-04-25T02:07:11.830Z,2.44
2024-04-25T02:09:39.407Z,2.36
2024-04-25T02:12:07.536Z,2.29
2024-04-25T02:14:34.979Z,2.26
2024-04-25T02:17:04.717Z,2.26
2024-04-25T02:19:31.942Z,2.25
2024-04-25T02:22:17.819Z,2.27
2024-04-25T02:25:03.666Z,2.26
2024-04-25T02:27:31.015Z,2.23
2024-04-25T02:29:58.153Z,2.20
2024-04-25T02:32:27.843Z,2.18
2024-04-25T02:34:55.007Z,2.17
2024-04-25T02:37:22.132Z,2.17
2024-04-25T02:39:49.264Z,2.19
2024-04-25T02:42:16.539Z,2.23
2024-04-25T02:44:43.761Z,2.34
2024-04-25T02:47:10.847Z,2.44
2024-04-25T02:49:40.451Z,2.55
2024-04-25T02:52:07.572Z,2.65
2024-04-25T02:54:34.666Z,2.75
2024-04-25T02:57:02.630Z,2.84
2024-04-25T02:59:29.727Z,2.89
2024-04-25T03:01:56.873Z,2.94
2024-04-25T03:04:24.059Z,2.95
2024-04-25T03:06:53.631Z,2.99
2024-04-25T03:09:20.680Z,3.03
2024-04-25T03:11:48.002Z,2.99
2024-04-25T03:14:15.357Z,2.96
2024-04-25T03:16:42.535Z,2.90
2024-04-25T03:19:09.724Z,2.82
2024-04-25T03:21:36.907Z,2.71
2024-04-25T03:24:07.762Z,2.65
2024-04-25T03:26:34.902Z,2.56
2024-04-25T03:29:02.042Z,2.49
2024-04-25T03:31:29.145Z,2.44
2024-04-25T03:33:56.237Z,2.41
2024-04-25T03:36:25.774Z,2.38
2024-04-25T03:38:52.902Z,2.33
2024-04-25T03:41:22.718Z,2.30
2024-04-25T03:43:49.909Z,2.27
2024-04-25T03:46:17.086Z,2.21
2024-04-25T03:48:44.287Z,2.17
2024-04-25T03:51:12.164Z,2.09
2024-04-25T03:53:39.285Z,2.05
2024-04-25T03:56:06.640Z,2.06
2024-04-25T03:58:36.210Z,2.06
2024-04-25T04:01:03.608Z,2.08
2024-04-25T04:03:31.121Z,2.10
2024-04-25T04:05:58.341Z,2.16
2024-04-25T04:08:25.783Z,2.23
2024-04-25T04:10:53.120Z,2.31
2024-04-25T04:13:20.291Z,2.42
2024-04-25T04:15:49.903Z,2.50
2024-04-25T04:18:17.166Z,2.59
2024-04-25T04:20:46.144Z,2.66
2024-04-25T04:23:13.419Z,2.69
2024-04-25T04:25:40.556Z,2.77
2024-04-25T04:28:07.691Z,2.78
2024-04-25T04:30:35.929Z,2.79
2024-04-25T04:33:05.881Z,2.83
2024-04-25T04:35:33.063Z,2.88
2024-04-25T04:38:00.397Z,2.94
2024-04-25T04:40:27.568Z,3.00
2024-04-25T04:42:55.094Z,3.02
2024-04-25T04:45:22.264Z,3.02
2024-04-25T04:47:49.488Z,3.03
2024-04-25T04:50:20.457Z,3.04
2024-04-25T04:52:47.801Z,3.09
2024-04-25T04:55:14.988Z,3.12
2024-04-25T04:57:42.167Z,3.17
2024-04-25T05:00:10.240Z,3.21
2024-04-25T05:02:37.531Z,3.25
2024-04-25T05:05:05.298Z,3.32
2024-04-25T05:07:35.409Z,3.46
2024-04-25T05:10:02.538Z,3.55
2024-04-25T05:12:29.799Z,3.63
2024-04-25T05:14:57.072Z,3.74
2024-04-25T05:17:24.217Z,3.83
2024-04-25T05:19:51.318Z,3.94
2024-04-25T05:22:18.806Z,4.10
2024-04-25T05:24:48.406Z,4.25
2024-04-25T05:27:15.537Z,4.29
2024-04-25T05:29:42.744Z,4.22
2024-04-25T05:32:09.976Z,4.21
2024-04-25T05:34:37.338Z,4.17
2024-04-25T05:37:04.640Z,4.16
2024-04-25T05:39:31.851Z,4.22
2024-04-25T05:42:01.455Z,4.36
2024-04-25T05:44:28.574Z,4.53
2024-04-25T05:46:56.077Z,4.80
2024-04-25T05:49:23.155Z,5.02
2024-04-25T05:51:50.246Z,5.22
2024-04-25T05:54:17.378Z,5.18
2024-04-25T05:56:44.488Z,5.13
2024-04-25T05:59:14.110Z,5.03
2024-04-25T06:01:41.291Z,4.95
2024-04-25T06:04:08.539Z,4.90
2024-04-25T06:06:35.724Z,4.88
2024-04-25T06:09:02.848Z,4.97
2024-04-25T06:11:34.154Z,5.13
2024-04-25T06:14:01.816Z,5.25
2024-04-25T06:16:31.478Z,5.35
2024-04-25T06:18:58.768Z,5.48
2024-04-25T06:21:25.864Z,5.51
2024-04-25T06:23:53.654Z,5.58
2024-04-25T06:26:21.103Z,5.67
2024-04-25T06:28:48.312Z,5.68
2024-04-25T06:31:15.448Z,5.64
2024-04-25T06:33:45.078Z,5.63
2024-04-25T06:36:13.342Z,5.66
2024-04-25T06:38:41.074Z,5.83
2024-04-25T06:41:08.387Z,5.86
2024-04-25T06:43:35.985Z,5.96
2024-04-25T06:46:03.584Z,6.05
2024-04-25T06:48:30.776Z,6.21
2024-04-25T06:51:03.051Z,6.60
2024-04-25T06:53:30.213Z,8.18
2024-04-25T06:55:57.930Z,8.12
2024-04-25T06:58:25.018Z,7.87
2024-04-25T07:00:52.150Z,7.91
2024-04-25T07:03:19.309Z,8.17
2024-04-25T07:05:47.574Z,8.79
2024-04-25T07:08:17.248Z,8.92
2024-04-25T07:10:44.476Z,8.78
2024-04-25T07:13:11.624Z,8.80
2024-04-25T07:15:38.741Z,8.76
2024-04-25T07:18:08.272Z,8.92
2024-04-25T07:20:36.014Z,8.97
2024-04-25T07:23:03.482Z,8.91
2024-04-25T07:25:33.211Z,9.00
2024-04-25T07:28:00.271Z,8.95
2024-04-25T07:30:27.422Z,8.72
2024-04-25T07:32:54.635Z,8.64
2024-04-25T07:35:21.853Z,8.57
2024-04-25T07:37:48.945Z,8.71
2024-04-25T07:40:16.196Z,8.79
2024-04-25T07:42:45.775Z,8.81
2024-04-25T07:45:12.907Z,8.96
2024-04-25T07:47:40.390Z,9.02
2024-04-25T07:50:07.926Z,8.94
2024-04-25T07:52:35.438Z,8.77
2024-04-25T07:55:02.971Z,8.90
2024-04-25T07:57:30.023Z,9.12
2024-04-25T07:59:59.620Z,9.11
2024-04-25T08:02:26.846Z,9.21
2024-04-25T08:04:56.341Z,11.36
2024-04-25T08:07:23.488Z,14.46
2024-04-25T08:09:50.599Z,16.10
2024-04-25T08:12:17.713Z,15.18
2024-04-25T08:14:45.660Z,13.28
2024-04-25T08:17:16.097Z,11.41
2024-04-25T08:19:43.182Z,10.20
2024-04-25T08:22:10.619Z,9.32
2024-04-25T08:24:37.715Z,8.77
2024-04-25T08:27:04.784Z,8.40
2024-04-25T08:29:33.912Z,7.99
2024-04-25T08:32:00.989Z,7.53
2024-04-25T08:34:30.559Z,7.26
2024-04-25T08:36:57.687Z,7.19
2024-04-25T08:39:24.774Z,7.23
2024-04-25T08:41:53.398Z,7.41
2024-04-25T08:44:21.617Z,7.60
2024-04-25T08:46:49.995Z,7.86
2024-04-25T08:49:18.815Z,8.06
2024-04-25T08:51:51.614Z,8.34
2024-04-25T08:54:22.372Z,8.37
2024-04-25T08:56:49.520Z,8.18
2024-04-25T08:59:16.646Z,8.28
2024-04-25T09:01:46.474Z,8.27
2024-04-25T09:04:17.675Z,8.40
2024-04-25T09:06:46.709Z,8.38
2024-04-25T09:09:19.329Z,8.56
2024-04-25T09:11:54.369Z,8.76
2024-04-25T09:14:22.053Z,8.95
2024-04-25T09:16:49.342Z,8.98
2024-04-25T09:19:16.472Z,9.08
2024-04-25T09:21:44.555Z,9.23
2024-04-25T09:24:12.719Z,9.79
2024-04-25T09:26:42.715Z,10.05
2024-04-25T09:29:10.316Z,10.14
2024-04-25T09:31:38.810Z,10.92
2024-04-25T09:34:05.993Z,11.59
2024-04-25T09:36:34.356Z,11.28
2024-04-25T09:39:01.532Z,10.73
2024-04-25T09:41:28.963Z,10.21
2024-04-25T09:43:59.057Z,10.12
2024-04-25T09:46:33.315Z,9.37
2024-04-25T09:49:06.810Z,8.83
2024-04-25T09:51:38.996Z,9.07
2024-04-25T09:54:11.912Z,9.59
2024-04-25T09:56:39.875Z,9.92
2024-04-25T09:59:19.488Z,10.01
2024-04-25T10:01:48.772Z,9.78
2024-04-25T10:04:16.251Z,9.49
2024-04-25T10:06:44.364Z,9.19
2024-04-25T10:09:12.128Z,9.01
2024-04-25T10:11:39.951Z,8.71
2024-04-25T10:14:07.119Z,8.71
2024-04-25T10:16:36.814Z,8.88
2024-04-25T10:19:04.182Z,9.11
2024-04-25T10:21:31.406Z,9.02
2024-04-25T10:24:11.260Z,8.76
2024-04-25T10:26:38.371Z,8.44
2024-04-25T10:29:06.684Z,8.00
2024-04-25T10:31:38.756Z,7.50
2024-04-25T10:34:08.764Z,6.80
2024-04-25T10:36:37.555Z,6.47
2024-04-25T10:39:08.652Z,6.32
2024-04-25T10:41:38.125Z,6.29
2024-04-25T10:44:06.464Z,6.25
2024-04-25T10:46:33.986Z,6.36
2024-04-25T10:49:05.179Z,6.61
2024-04-25T10:51:35.831Z,6.79
2024-04-25T10:54:03.087Z,6.86
2024-04-25T10:56:30.711Z,7.11
2024-04-25T10:58:58.982Z,7.61
2024-04-25T11:01:27.302Z,8.12
2024-04-25T11:03:58.552Z,8.48
2024-04-25T11:06:32.356Z,9.39
2024-04-25T11:09:00.954Z,10.38
2024-04-25T11:11:29.058Z,11.53
2024-04-25T11:13:56.684Z,12.52
2024-04-25T11:16:23.991Z,12.10
2024-04-25T11:19:01.349Z,11.72
2024-04-25T11:21:37.048Z,11.10
2024-04-25T11:24:04.598Z,10.99
2024-04-25T11:26:31.854Z,10.91
2024-04-25T11:28:59.359Z,10.69
2024-04-25T11:31:26.570Z,10.81
2024-04-25T11:33:54.045Z,11.15
2024-04-25T11:36:22.646Z,11.49
2024-04-25T11:38:57.421Z,11.32
2024-04-25T11:41:25.027Z,11.17
2024-04-25T11:43:52.261Z,11.23
2024-04-25T11:46:19.595Z,11.33
2024-04-25T11:48:51.050Z,11.36
2024-04-25T11:51:18.280Z,11.13
2024-04-25T11:53:45.499Z,11.16
2024-04-25T11:56:15.268Z,11.27
2024-04-25T11:58:42.345Z,11.38
2024-04-25T12:01:09.529Z,11.35
2024-04-25T12:03:36.742Z,11.67
2024-04-25T12:06:04.199Z,11.98
2024-04-25T12:08:31.418Z,11.80
2024-04-25T12:10:58.510Z,12.19
2024-04-25T12:13:28.114Z,12.76
2024-04-25T12:15:55.270Z,12.83
2024-04-25T12:18:25.590Z,12.62
2024-04-25T12:20:53.341Z,11.83
2024-04-25T12:23:23.664Z,11.54
2024-04-25T12:25:54.289Z,11.31
2024-04-25T12:28:21.394Z,11.07
2024-04-25T12:30:51.133Z,10.68
2024-04-25T12:33:18.416Z,10.35
2024-04-25T12:35:45.724Z,10.37
2024-04-25T12:38:12.844Z,11.24
2024-04-25T12:40:39.953Z,11.98
2024-04-25T12:43:07.144Z,12.73
2024-04-25T12:45:37.566Z,12.92
2024-04-25T12:48:10.036Z,13.26
2024-04-25T12:50:38.186Z,13.37
2024-04-25T12:53:05.390Z,13.21
2024-04-25T12:55:32.750Z,13.20
2024-04-25T12:57:59.876Z,12.96
2024-04-25T13:00:27.075Z,12.44
2024-04-25T13:02:54.306Z,12.35
2024-04-25T13:05:24.049Z,12.44
2024-04-25T13:07:51.215Z,12.85
2024-04-25T13:10:18.471Z,13.46
2024-04-25T13:12:47.944Z,13.46
2024-04-25T13:15:15.215Z,13.42
2024-04-25T13:17:42.507Z,13.37
2024-04-25T13:20:11.246Z,13.56
2024-04-25T13:22:40.622Z,13.28
2024-04-25T13:25:07.987Z,12.96
2024-04-25T13:27:35.093Z,12.86
2024-04-25T13:30:02.278Z,12.63
2024-04-25T13:32:29.478Z,12.77
2024-04-25T13:34:59.571Z,12.70
2024-04-25T13:37:26.676Z,12.47
2024-04-25T13:39:56.302Z,12.31
2024-04-25T13:42:23.608Z,12.21
2024-04-25T13:44:50.845Z,12.18
2024-04-25T13:47:18.048Z,11.94
2024-04-25T13:49:45.270Z,11.91
2024-04-25T13:52:12.350Z,11.71
2024-04-25T13:54:41.941Z,11.63
2024-04-25T13:57:11.987Z,11.34
2024-04-25T13:59:40.540Z,11.01
2024-04-25T14:02:08.207Z,10.65
2024-04-25T14:04:35.316Z,10.60
2024-04-25T14:07:03.048Z,10.59
2024-04-25T14:09:30.841Z,10.57
2024-04-25T14:11:58.033Z,10.51
2024-04-25T14:14:30.867Z,10.52
2024-04-25T14:16:57.982Z,10.48
2024-04-25T14:19:26.561Z,10.55
2024-04-25T14:21:53.641Z,10.62
2024-04-25T14:24:20.736Z,10.48
2024-04-25T14:27:06.681Z,10.49
2024-04-25T14:29:38.869Z,10.46
2024-04-25T14:32:06.452Z,10.52
2024-04-25T14:34:34.433Z,10.69
2024-04-25T14:37:01.552Z,10.84
2024-04-25T14:39:28.698Z,10.95
2024-04-25T14:41:55.995Z,11.00
2024-04-25T14:44:23.123Z,10.88
2024-04-25T14:46:54.378Z,10.74
2024-04-25T14:49:21.940Z,10.62
2024-04-25T14:51:49.000Z,10.49
2024-04-25T14:54:16.171Z,10.33
2024-04-25T14:56:43.375Z,10.26
2024-04-25T14:59:10.487Z,10.16
2024-04-25T15:01:37.594Z,10.06
2024-04-25T15:04:08.882Z,9.98
2024-04-25T15:06:38.499Z,9.75
2024-04-25T15:09:05.583Z,9.68
2024-04-25T15:11:32.781Z,9.67
2024-04-25T15:13:59.938Z,9.58
2024-04-25T15:16:27.750Z,9.51
2024-04-25T15:18:55.422Z,9.56
2024-04-25T15:21:25.008Z,9.69
2024-04-25T15:23:52.216Z,9.82
2024-04-25T15:26:19.497Z,9.86
2024-04-25T15:28:46.603Z,9.94
2024-04-25T15:31:17.380Z,9.97
2024-04-25T15:33:45.001Z,9.88
2024-04-25T15:36:12.093Z,9.87
2024-04-25T15:38:41.680Z,9.84
2024-04-25T15:41:10.068Z,9.76
2024-04-25T15:43:38.960Z,9.62
2024-04-25T15:46:06.098Z,9.46
2024-04-25T15:48:33.316Z,9.41
2024-04-25T15:51:00.577Z,9.31
2024-04-25T15:53:27.753Z,9.14
2024-04-25T15:55:58.931Z,9.17
2024-04-25T15:58:26.388Z,9.13
2024-04-25T16:00:53.762Z,9.15
2024-04-25T16:03:22.055Z,9.11
2024-04-25T16:05:49.405Z,9.02
2024-04-25T16:08:16.604Z,8.95
2024-04-25T16:10:46.657Z,8.88
2024-04-25T16:13:17.934Z,8.76
2024-04-25T16:15:46.440Z,8.73
2024-04-25T16:18:13.581Z,8.68
2024-04-25T16:20:40.845Z,8.58
2024-04-25T16:23:07.988Z,8.50
2024-04-25T16:25:37.620Z,8.39
2024-04-25T16:28:05.172Z,8.33
2024-04-25T16:30:34.799Z,8.26
2024-04-25T16:33:02.095Z,8.11
2024-04-25T16:35:29.356Z,7.95
2024-04-25T16:37:57.055Z,7.87
2024-04-25T16:40:25.271Z,7.81
2024-04-25T16:42:55.777Z,7.58
2024-04-25T16:45:22.903Z,7.43
2024-04-25T16:47:52.632Z,7.37
2024-04-25T16:50:19.856Z,7.33
2024-04-25T16:52:46.971Z,7.26
2024-04-25T16:55:15.352Z,7.24
2024-04-25T16:57:42.502Z,7.16
2024-04-25T17:00:10.328Z,7.08
2024-04-25T17:02:37.502Z,7.08
2024-04-25T17:05:12.171Z,7.12
2024-04-25T17:07:39.263Z,7.18
2024-04-25T17:10:08.375Z,7.26
2024-04-25T17:12:35.459Z,7.22
2024-04-25T17:15:02.647Z,7.21
2024-04-25T17:17:29.860Z,7.24
2024-04-25T17:19:57.063Z,7.18
2024-04-25T17:22:26.661Z,7.16
2024-04-25T17:24:53.794Z,7.14
2024-04-25T17:27:20.904Z,7.06
2024-04-25T17:29:48.052Z,6.98
2024-04-25T17:32:15.416Z,6.95
2024-04-25T17:34:44.112Z,6.96
2024-04-25T17:37:12.869Z,6.92
2024-04-25T17:39:42.571Z,6.90
2024-04-25T17:42:09.773Z,6.87
2024-04-25T17:44:37.054Z,6.90
2024-04-25T17:47:11.036Z,6.90
2024-04-25T17:49:40.030Z,6.88
2024-04-25T17:52:08.764Z,6.92
2024-04-25T17:54:36.087Z,6.95
2024-04-25T17:57:05.855Z,6.93
2024-04-25T17:59:33.037Z,6.92
2024-04-25T18:02:01.323Z,6.95
2024-04-25T18:04:29.400Z,6.98
2024-04-25T18:06:56.590Z,6.96
2024-04-25T18:09:24.550Z,6.95
2024-04-25T18:11:51.701Z,6.98
2024-04-25T18:14:21.296Z,6.98
2024-04-25T18:16:48.430Z,6.98
2024-04-25T18:19:15.752Z,7.02
2024-04-25T18:21:42.983Z,7.03
2024-04-25T18:24:11.304Z,6.97
2024-04-25T18:26:38.549Z,6.98
2024-04-25T18:29:05.662Z,6.95
2024-04-25T18:31:35.246Z,6.96
2024-04-25T18:34:02.346Z,6.95
2024-04-25T18:36:29.430Z,6.90
2024-04-25T18:38:56.512Z,6.86
2024-04-25T18:41:23.730Z,6.86
2024-04-25T18:43:50.896Z,6.87
2024-04-25T18:46:19.784Z,6.83
2024-04-25T18:48:49.539Z,6.81
2024-04-25T18:51:20.057Z,6.79
2024-04-25T18:53:47.455Z,6.74
2024-04-25T18:56:14.727Z,6.71
2024-04-25T18:58:41.787Z,6.68
2024-04-25T19:01:08.952Z,6.69
2024-04-25T19:03:36.554Z,6.72
2024-04-25T19:06:09.319Z,6.77
2024-04-25T19:08:36.408Z,6.76
2024-04-25T19:11:05.521Z,6.67
2024-04-25T19:13:32.714Z,6.58
2024-04-25T19:15:59.821Z,6.43
2024-04-25T19:18:27.559Z,6.33
2024-04-25T19:20:56.958Z,6.32
2024-04-25T19:23:26.690Z,6.23
2024-04-25T19:25:53.858Z,6.21
2024-04-25T19:28:21.128Z,6.19
2024-04-25T19:30:48.234Z,6.13
2024-04-25T19:33:15.421Z,6.14
2024-04-25T19:35:42.667Z,6.12
2024-04-25T19:38:11.546Z,6.13
2024-04-25T19:40:42.378Z,6.10
2024-04-25T19:43:09.481Z,6.12
2024-04-25T19:45:36.667Z,6.17
2024-04-25T19:48:04.735Z,6.16
2024-04-25T19:50:31.912Z,6.15
2024-04-25T19:52:59.712Z,6.17
2024-04-25T19:55:26.772Z,6.14
2024-04-25T19:57:56.485Z,6.13
2024-04-25T20:00:23.662Z,6.06
2024-04-25T20:02:50.843Z,6.07
2024-04-25T20:05:18.116Z,6.08
2024-04-25T20:07:45.715Z,6.05
2024-04-25T20:10:12.828Z,6.06
2024-04-25T20:12:40.113Z,6.06
2024-04-25T20:15:09.761Z,6.09
2024-04-25T20:17:55.351Z,6.04
2024-04-25T20:20:41.241Z,6.06
2024-04-25T20:23:08.347Z,6.07
2024-04-25T20:25:35.490Z,6.10
2024-04-25T20:28:02.620Z,6.11
2024-04-25T20:30:32.252Z,6.07
2024-04-25T20:32:59.470Z,6.10
2024-04-25T20:35:26.641Z,6.15
2024-04-25T20:37:53.859Z,6.17
2024-04-25T20:40:20.982Z,6.16
2024-04-25T20:42:48.131Z,6.17
2024-04-25T20:45:15.736Z,6.13
2024-04-25T20:47:45.410Z,6.14
2024-04-25T20:50:12.752Z,6.15
2024-04-25T20:52:39.887Z,6.18
2024-04-25T20:55:07.596Z,6.17
2024-04-25T20:57:34.694Z,6.18
2024-04-25T21:00:01.921Z,6.21
2024-04-25T21:02:31.165Z,6.21
2024-04-25T21:05:01.740Z,6.17
2024-04-25T21:07:28.791Z,6.15
2024-04-25T21:09:55.918Z,6.15
2024-04-25T21:12:23.012Z,6.18
2024-04-25T21:14:50.129Z,6.17
2024-04-25T21:17:17.280Z,6.16
2024-04-25T21:19:44.504Z,6.12
2024-04-25T21:22:14.340Z,6.09
2024-04-25T21:24:41.438Z,6.11
2024-04-25T21:27:08.645Z,6.12
2024-04-25T21:29:36.740Z,6.10
2024-04-25T21:32:04.202Z,6.10
2024-04-25T21:34:31.348Z,6.09
2024-04-25T21:36:58.454Z,6.08
2024-04-25T21:39:28.092Z,6.05
2024-04-25T21:41:55.290Z,6.06
2024-04-25T21:44:22.401Z,6.07
2024-04-25T21:46:49.980Z,6.12
2024-04-25T21:49:17.278Z,6.15
2024-04-25T21:51:45.834Z,6.15
2024-04-25T21:54:13.361Z,6.17
2024-04-25T21:56:44.054Z,6.16
2024-04-25T21:59:11.584Z,6.18
2024-04-25T22:01:50.131Z,6.18
2024-04-25T22:04:17.298Z,6.21
2024-04-25T22:06:44.378Z,6.21
2024-04-25T22:09:11.703Z,6.21
2024-04-25T22:11:39.010Z,6.22
2024-04-25T22:14:08.920Z,6.24
2024-04-25T22:16:36.024Z,6.24
2024-04-25T22:19:03.243Z,6.25
2024-04-25T22:21:31.846Z,6.24
2024-04-25T22:23:59.042Z,6.20
2024-04-25T22:26:26.324Z,6.21
2024-04-25T22:28:53.479Z,6.20
2024-04-25T22:31:24.704Z,6.20
2024-04-25T22:33:51.974Z,6.19
2024-04-25T22:36:20.833Z,6.20
2024-04-25T22:38:47.987Z,6.21
2024-04-25T22:41:15.137Z,6.15
2024-04-25T22:43:42.295Z,6.14
2024-04-25T22:46:10.393Z,6.18
2024-04-25T22:48:40.129Z,6.20
2024-04-25T22:51:07.439Z,6.19
2024-04-25T22:53:35.835Z,6.18
2024-04-25T22:56:03.071Z,6.19
2024-04-25T22:58:30.182Z,6.16
2024-04-25T23:00:57.380Z,6.19
2024-04-25T23:03:27.780Z,6.20
2024-04-25T23:05:58.952Z,6.16
2024-04-25T23:08:26.480Z,6.14
2024-04-25T23:10:54.450Z,6.15
2024-04-25T23:13:21.615Z,6.19
2024-04-25T23:15:49.343Z,6.21
2024-04-25T23:18:16.700Z,6.20
2024-04-25T23:20:43.885Z,6.23
2024-04-25T23:23:13.675Z,6.22
2024-04-25T23:25:41.020Z,6.21
2024-04-25T23:28:08.181Z,6.20
2024-04-25T23:30:35.290Z,6.17
2024-04-25T23:33:02.676Z,6.18
2024-04-25T23:35:29.861Z,6.17
2024-04-25T23:37:56.969Z,6.19
2024-04-25T23:40:26.610Z,6.17
2024-04-25T23:42:53.753Z,6.14
2024-04-25T23:45:20.884Z,6.15
2024-04-25T23:47:48.322Z,6.16
2024-04-25T23:50:15.734Z,6.15
2024-04-25T23:52:42.865Z,6.17
2024-04-25T23:55:10.043Z,6.19
2024-04-25T23:57:39.711Z,6.16
